Time;durP1;ratioP1;P1;durP2;ratioP2;P2;SDS_P1;SDS_P2;PMS_P1;PMS_P2;Temp;Humidity;BMP_temperature;BMP_pressure;BME280_temperature;BME280_humidity;BME280_pressure;Samples;Min_cycle;Max_cycle;Signal;HPM_P1;HPM_P2
2021/04/08 00:00:52;;;;;;;;;;;;;;;-0.93;99.79;93019.16;5015152;28;20046;-86
2021/04/08 00:03:19;;;;;;;3.60;2.15;;;;;;;-0.78;99.56;93024.50;5010772;28;19921;-84
2021/04/08 00:05:46;;;;;;;5.63;2.35;;;;;;;-0.68;99.54;93022.66;5010844;28;20417;-85
2021/04/08 00:08:12;;;;;;;3.33;1.88;;;;;;;-0.48;100.00;93017.47;5010576;28;20045;-84
2021/04/08 00:10:38;;;;;;;3.22;2.55;;;;;;;-0.30;100.00;93019.97;5010713;28;20085;-84
2021/04/08 00:13:05;;;;;;;6.63;3.28;;;;;;;-0.48;97.39;93024.22;5011213;28;20053;-85
2021/04/08 00:15:31;;;;;;;;;;;;;;;-0.37;98.81;93020.69;5015282;28;20108;-85
2021/04/08 00:17:57;;;;;;;4.43;2.80;;;;;;;-0.43;99.16;93017.81;5014651;28;19925;-84
2021/04/08 00:20:24;;;;;;;;;;;;;;;-0.62;98.30;93016.25;5015076;28;20410;-85
2021/04/08 00:22:50;;;;;;;5.20;2.55;;;;;;;-0.63;98.88;93016.41;5014365;28;19925;-85
2021/04/08 00:25:17;;;;;;;6.80;3.50;;;;;;;-0.76;99.63;93006.69;5014400;28;20049;-85
2021/04/08 00:27:43;;;;;;;;;;;;;;;-0.86;98.49;93009.28;5014901;28;20057;-85
2021/04/08 00:30:11;;;;;;;5.28;3.10;;;;;;;-0.86;100.00;93015.13;5014433;28;19921;-87
2021/04/08 00:32:37;;;;;;;4.13;2.40;;;;;;;-0.87;96.79;93018.59;5014428;28;20046;-85
2021/04/08 00:35:05;;;;;;;3.78;2.78;;;;;;;-0.92;96.42;93019.94;5014333;28;20046;-84
2021/04/08 00:37:32;;;;;;;3.88;2.85;;;;;;;-0.91;98.58;93013.97;5014070;28;20081;-86
2021/04/08 00:39:59;;;;;;;4.32;2.42;;;;;;;-1.01;97.08;93011.53;5014283;28;20057;-85
2021/04/08 00:42:25;;;;;;;3.92;2.70;;;;;;;-1.05;97.52;93018.59;5014292;28;20054;-85
2021/04/08 00:44:51;;;;;;;3.45;2.10;;;;;;;-1.03;99.48;93009.13;5014016;28;20421;-85
2021/04/08 00:47:17;;;;;;;4.53;2.05;;;;;;;-1.21;98.19;93007.41;5014013;28;20050;-85
2021/04/08 00:49:43;;;;;;;;;;;;;;;-1.02;98.31;93018.28;5014361;28;20545;-85
2021/04/08 00:52:10;;;;;;;5.35;3.63;;;;;;;-1.01;100.00;93014.03;5014043;28;20377;-85
2021/04/08 00:54:38;;;;;;;5.00;1.92;;;;;;;-0.96;100.00;93000.06;5014131;28;20379;-85
2021/04/08 00:57:05;;;;;;;5.75;2.70;;;;;;;-0.92;100.00;93010.66;5014298;28;20068;-84
2021/04/08 00:59:31;;;;;;;4.13;2.72;;;;;;;-1.04;98.80;93016.84;5013683;28;20501;-85
2021/04/08 01:01:58;;;;;;;6.68;3.55;;;;;;;-1.30;97.42;93008.25;5013840;28;20061;-84
2021/04/08 01:04:24;;;;;;;2.95;1.70;;;;;;;-1.35;97.97;93000.31;5013635;28;20042;-84
2021/04/08 01:06:51;;;;;;;4.03;2.83;;;;;;;-1.44;97.98;93001.19;5013657;28;20049;-84
2021/04/08 01:09:18;;;;;;;8.63;3.65;;;;;;;-1.42;98.07;93007.66;5013850;28;20077;-84
2021/04/08 01:11:45;;;;;;;4.40;2.92;;;;;;;-1.50;97.88;93005.06;5013720;28;20050;-84
2021/04/08 01:14:12;;;;;;;5.28;2.70;;;;;;;-1.55;97.40;93022.31;5013710;28;20609;-84
2021/04/08 01:16:47;;;;;;;2.97;1.90;;;;;;;-1.46;97.94;93028.22;5013619;28;20068;-84
2021/04/08 01:19:56;;;;;;;9.05;3.28;;;;;;;-1.55;97.78;93025.63;5013366;28;20111;-84
2021/04/08 01:22:45;;;;;;;2.03;1.30;;;;;;;-1.54;97.72;93027.22;5005753;28;20060;-83
2021/04/08 01:25:35;;;;;;;3.20;2.13;;;;;;;-1.46;97.94;93036.59;5012767;28;20129;-84
2021/04/08 01:28:20;;;;;;;2.72;2.33;;;;;;;-1.48;98.20;93034.22;5013295;28;20057;-84
2021/04/08 01:30:49;;;;;;;4.82;3.17;;;;;;;-1.34;98.49;93022.09;5012726;28;20196;-81
2021/04/08 01:33:20;;;;;;;8.25;3.83;;;;;;;-1.53;97.86;93026.28;5013271;28;20425;-83
2021/04/08 01:35:49;;;;;;;2.88;2.17;;;;;;;-1.42;98.15;93017.75;5013100;28;20050;-83
2021/04/08 01:38:22;;;;;;;4.20;2.10;;;;;;;-1.47;99.17;93035.00;5013206;28;20057;-83
2021/04/08 01:40:50;;;;;;;8.10;4.72;;;;;;;-1.43;99.30;93038.81;5013136;28;20132;-82
2021/04/08 01:43:21;;;;;;;5.05;2.63;;;;;;;-1.52;98.83;93032.91;5013009;28;20054;-83
2021/04/08 01:45:49;;;;;;;4.25;2.83;;;;;;;-1.58;99.66;93030.16;5013088;28;20453;-84
2021/04/08 01:48:16;;;;;;;2.85;2.40;;;;;;;-1.52;99.52;93027.84;5012782;28;20050;-83
2021/04/08 01:50:43;;;;;;;5.43;2.88;;;;;;;-1.47;99.01;93032.50;5012828;28;20046;-83
2021/04/08 01:53:14;;;;;;;4.45;2.88;;;;;;;-1.39;99.23;93031.78;5013074;28;20418;-83
2021/04/08 01:55:43;;;;;;;2.55;2.30;;;;;;;-1.33;98.04;93055.63;5012940;28;20124;-84
2021/04/08 01:58:10;;;;;;;3.15;1.98;;;;;;;-1.26;98.50;93047.34;5012603;28;20046;-83
2021/04/08 02:00:37;;;;;;;2.03;1.60;;;;;;;-1.31;97.99;93051.25;5012613;28;20046;-83
2021/04/08 02:03:05;;;;;;;4.70;2.45;;;;;;;-1.30;97.15;93053.59;5012631;28;20050;-84
2021/04/08 02:05:32;;;;;;;6.03;2.58;;;;;;;-1.31;97.21;93058.81;5013002;28;20049;-84
2021/04/08 02:08:00;;;;;;;4.32;2.90;;;;;;;-1.25;98.06;93064.06;5012513;28;20061;-83
2021/04/08 02:10:30;;;;;;;2.72;1.88;;;;;;;-1.21;98.59;93067.88;5012533;28;20057;-84
2021/04/08 02:12:57;;;;;;;3.58;2.05;;;;;;;-1.25;96.93;93060.75;5012460;28;20517;-85
2021/04/08 02:15:25;;;;;;;9.02;2.85;;;;;;;-1.16;97.20;93064.94;5012338;28;20050;-84
2021/04/08 02:17:54;;;;;;;3.65;2.92;;;;;;;-1.29;96.98;93067.78;5012514;28;20045;-83
2021/04/08 02:20:24;;;;;;;4.18;3.08;;;;;;;-1.10;99.40;93053.50;5012183;28;20050;-84
2021/04/08 02:22:53;;;;;;;4.82;3.28;;;;;;;-1.07;97.46;93060.78;5012216;28;20506;-84
2021/04/08 02:25:22;;;;;;;6.85;2.55;;;;;;;-1.26;95.60;93077.59;5012309;28;20057;-83
2021/04/08 02:27:49;;;;;;;7.10;4.53;;;;;;;-1.19;98.59;93052.63;5012166;28;20402;-83
2021/04/08 02:30:21;;;;;;;12.00;5.85;;;;;;;-1.12;100.00;93051.13;5011963;28;20502;-84
2021/04/08 02:32:48;;;;;;;14.77;8.98;;;;;;;-0.93;100.00;93069.56;5012321;28;20049;-83
2021/04/08 02:35:16;;;;;;;7.35;4.38;;;;;;;-1.02;99.14;93073.75;5011990;28;20489;-83
2021/04/08 02:37:44;;;;;;;6.88;4.28;;;;;;;-0.91;99.46;93067.72;5011134;28;20046;-84
2021/04/08 02:40:14;;;;;;;36.72;11.98;;;;;;;-0.90;98.85;93071.03;5011841;28;20077;-84
2021/04/08 02:42:40;;;;;;;61.85;20.98;;;;;;;-0.92;99.67;93066.13;5012205;28;20045;-84
2021/04/08 02:45:08;;;;;;;43.22;12.63;;;;;;;-0.84;100.00;93070.44;5011798;28;20053;-83
2021/04/08 02:47:35;;;;;;;52.45;19.50;;;;;;;-0.84;100.00;93076.28;5011666;28;20595;-84
2021/04/08 02:50:02;;;;;;;28.92;14.15;;;;;;;-0.89;99.35;93073.41;5011975;28;20522;-84
2021/04/08 02:52:38;;;;;;;31.92;13.60;;;;;;;-0.78;100.00;93079.19;5011796;28;20046;-84
2021/04/08 02:55:15;;;;;;;22.33;11.50;;;;;;;-0.76;100.00;93090.72;5012093;28;20088;-84
2021/04/08 02:57:52;;;;;;;25.35;10.63;;;;;;;-0.76;99.66;93100.81;5011634;28;20452;-84
2021/04/08 03:00:19;;;;;;;24.60;8.98;;;;;;;-0.75;99.25;93109.16;5011493;28;20502;-84
2021/04/08 03:02:48;;;;;;;10.10;4.43;;;;;;;-0.74;99.27;93108.22;5011578;28;20074;-84
2021/04/08 03:05:16;;;;;;;7.88;3.95;;;;;;;-0.84;96.72;93108.28;5011584;28;20050;-85
2021/04/08 03:07:45;;;;;;;9.50;5.38;;;;;;;-0.81;97.83;93102.97;5011543;28;20391;-84
2021/04/08 03:10:15;;;;;;;8.85;4.47;;;;;;;-0.77;99.70;93099.22;5011424;28;20053;-86
2021/04/08 03:12:46;;;;;;;28.95;9.90;;;;;;;-0.75;99.83;93106.66;5011391;28;20046;-85
2021/04/08 03:15:14;;;;;;;13.68;7.75;;;;;;;-0.73;99.86;93107.28;5011348;28;20056;-84
2021/04/08 03:17:43;;;;;;;19.48;7.93;;;;;;;-0.68;100.00;93116.00;5011283;28;20388;-85
2021/04/08 03:20:13;;;;;;;12.10;5.93;;;;;;;-0.67;99.20;93124.38;5011427;28;20058;-85
2021/04/08 03:22:40;;;;;;;16.65;6.32;;;;;;;-0.64;99.42;93131.66;5011536;28;20050;-84
2021/04/08 03:25:08;;;;;;;32.47;10.07;;;;;;;-0.64;98.59;93141.75;5011279;28;20060;-84
2021/04/08 03:27:37;;;;;;;21.92;9.30;;;;;;;-0.75;98.11;93135.16;5011306;28;20053;-84
2021/04/08 03:30:05;;;;;;;29.42;10.75;;;;;;;-0.90;96.93;93150.00;5011373;28;20049;-84
2021/04/08 03:32:31;;;;;;;23.10;8.85;;;;;;;-1.03;98.78;93144.50;5011000;28;20503;-86
2021/04/08 03:34:58;;;;;;;17.60;7.93;;;;;;;-0.85;100.00;93162.97;5011341;28;20053;-84
2021/04/08 03:37:24;;;;;;;21.35;8.15;;;;;;;-0.88;99.36;93165.78;5011360;28;20088;-84
2021/04/08 03:39:51;;;;;;;18.70;8.15;;;;;;;-0.83;99.10;93170.41;5011043;28;20050;-84
2021/04/08 03:42:18;;;;;;;21.05;6.68;;;;;;;-0.80;98.85;93172.63;5011141;28;20490;-84
2021/04/08 03:44:45;;;;;;;12.40;6.97;;;;;;;-0.70;99.34;93177.63;5011011;28;20054;-84
2021/04/08 03:47:13;;;;;;;12.10;4.55;;;;;;;-0.61;100.00;93176.00;5010931;28;20437;-84
2021/04/08 03:49:41;;;;;;;9.55;4.85;;;;;;;-0.61;100.00;93176.78;5010890;28;20042;-84
2021/04/08 03:52:08;;;;;;;17.27;6.57;;;;;;;-0.75;98.77;93162.13;5011224;28;20054;-84
2021/04/08 03:54:36;;;;;;;9.45;6.07;;;;;;;-0.63;99.82;93180.38;5011085;28;20050;-85
2021/04/08 03:57:07;;;;;;;5.50;3.40;;;;;;;-0.64;98.72;93174.56;5010891;28;20042;-84
2021/04/08 03:59:34;;;;;;;11.48;3.92;;;;;;;-0.66;98.00;93189.03;5010581;28;20061;-84
2021/04/08 04:02:02;;;;;;;8.90;4.53;;;;;;;-0.55;99.04;93170.38;5011038;28;20426;-83
2021/04/08 04:04:29;;;;;;;10.95;6.03;;;;;;;-0.56;97.61;93194.81;5011229;28;20402;-83
2021/04/08 04:06:57;;;;;;;8.43;4.72;;;;;;;-0.51;98.00;93193.59;5010755;28;20556;-82
2021/04/08 04:09:23;;;;;;;13.85;6.53;;;;;;;-0.33;100.00;93194.41;5010891;28;20045;-83
2021/04/08 04:11:50;;;;;;;5.78;4.07;;;;;;;-0.28;98.58;93191.44;5010777;28;20053;-84
2021/04/08 04:14:21;;;;;;;6.00;2.47;;;;;;;-0.30;97.23;93201.69;5011145;28;20057;-83
2021/04/08 04:16:49;;;;;;;8.50;4.35;;;;;;;-0.29;98.32;93220.16;5010937;28;20050;-84
2021/04/08 04:19:17;;;;;;;9.13;4.60;;;;;;;-0.16;97.44;93235.75;5010570;28;20108;-84
2021/04/08 04:21:43;;;;;;;9.30;4.47;;;;;;;-0.16;97.07;93234.94;5010817;28;20046;-83
2021/04/08 04:24:10;;;;;;;6.18;3.72;;;;;;;-0.20;96.65;93219.28;5011149;28;20049;-83
2021/04/08 04:26:36;;;;;;;7.10;4.13;;;;;;;-0.27;95.99;93233.44;5010794;28;20058;-82
2021/04/08 04:29:03;;;;;;;4.63;3.50;;;;;;;-0.24;97.17;93235.66;5010604;28;20050;-83
2021/04/08 04:31:32;;;;;;;8.52;4.45;;;;;;;-0.19;97.54;93235.25;5010786;28;20061;-84
2021/04/08 04:33:58;;;;;;;6.20;3.63;;;;;;;-0.17;97.18;93238.41;5010688;28;20046;-85
2021/04/08 04:36:25;;;;;;;;;;;;;;;-0.14;94.61;93250.72;5010994;28;20046;-84
2021/04/08 04:38:51;;;;;;;5.25;2.38;;;;;;;-0.36;93.79;93249.41;5008139;28;20316;-84
2021/04/08 04:41:17;;;;;;;;;;;;;;;-0.36;95.11;93247.72;5010976;28;20046;-84
2021/04/08 04:43:43;;;;;;;4.03;2.13;;;;;;;-0.45;94.38;93248.53;5010657;28;19932;-84
2021/04/08 04:46:10;;;;;;;3.78;2.53;;;;;;;-0.43;95.84;93255.03;5010437;28;20046;-85
2021/04/08 04:48:37;;;;;;;9.07;4.38;;;;;;;-0.57;95.40;93250.44;5010727;28;20482;-85
2021/04/08 04:51:03;;;;;;;3.97;3.10;;;;;;;-0.63;96.24;93245.97;5010348;28;20490;-85
2021/04/08 04:53:31;;;;;;;5.38;2.75;;;;;;;-0.70;96.64;93235.63;5010302;28;20512;-85
2021/04/08 04:55:57;;;;;;;2.78;2.17;;;;;;;-0.44;95.83;93270.31;5010565;28;20053;-84
2021/04/08 04:58:24;;;;;;;5.32;2.92;;;;;;;-0.36;96.05;93270.41;5010499;28;20073;-84
2021/04/08 05:00:50;;;;;;;2.95;1.90;;;;;;;-0.20;96.58;93269.78;5011620;28;20052;-86
2021/04/08 05:03:16;;;;;;;3.15;2.20;;;;;;;-0.19;94.33;93273.13;5013627;28;20100;-85
2021/04/08 05:05:43;;;;;;;3.47;2.67;;;;;;;-0.22;94.17;93274.19;5013760;28;20057;-86
2021/04/08 05:08:09;;;;;;;;;;;;;;;-0.31;94.40;93277.56;5014131;28;20453;-84
2021/04/08 05:10:36;;;;;;;3.47;2.05;;;;;;;-0.19;94.46;93273.13;5013590;28;20372;-85
2021/04/08 05:13:02;;;;;;;5.68;2.33;;;;;;;-0.27;93.62;93266.25;5013860;28;20049;-87
2021/04/08 05:15:28;;;;;;;4.47;2.65;;;;;;;-0.04;93.66;93279.25;5013760;28;20100;-83
2021/04/08 05:17:55;;;;;;;6.70;2.60;;;;;;;0.10;95.02;93274.66;5013571;28;20057;-83
2021/04/08 05:20:21;;;;;;;8.07;4.40;;;;;;;0.20;94.23;93280.44;5013427;28;20050;-85
2021/04/08 05:22:47;;;;;;;;;;;;;;;0.36;93.76;93281.50;5013782;28;20100;-85
2021/04/08 05:25:14;;;;;;;9.35;4.40;;;;;;;0.48;93.01;93279.53;5013576;28;20281;-85
2021/04/08 05:27:41;;;;;;;6.90;3.55;;;;;;;0.52;92.97;93278.31;5010893;28;20552;-85
2021/04/08 05:30:08;;;;;;;8.63;4.43;;;;;;;0.64;90.79;93287.25;5013149;28;20054;-86
2021/04/08 05:32:34;;;;;;;5.30;3.25;;;;;;;0.71;90.28;93284.13;5013326;28;20050;-83
2021/04/08 05:35:00;;;;;;;;;;;;;;;0.76;91.56;93290.34;5013554;28;20053;-84
2021/04/08 05:37:26;;;;;;;6.95;4.03;;;;;;;0.80;91.13;93293.38;5012873;28;19929;-85
2021/04/08 05:39:53;;;;;;;9.43;5.50;;;;;;;0.65;90.19;93291.38;5013218;28;20061;-84
2021/04/08 05:42:19;;;;;;;;;;;;;;;0.73;89.78;93297.41;5013614;28;20057;-85
2021/04/08 05:44:46;;;;;;;4.40;2.95;;;;;;;0.84;91.25;93288.81;5013214;28;19921;-84
2021/04/08 05:47:12;;;;;;;9.45;4.00;;;;;;;1.00;87.76;93303.28;5013096;28;20104;-86
2021/04/08 05:49:38;;;;;;;3.33;2.83;;;;;;;0.89;87.62;93306.88;5012960;28;20096;-84
2021/04/08 05:52:05;;;;;;;;;;;;;;;0.84;88.70;93302.25;5013198;28;20079;-84
2021/04/08 05:54:32;;;;;;;3.10;2.33;;;;;;;0.79;89.64;93307.75;5013026;28;19944;-84
2021/04/08 05:56:58;;;;;;;6.30;3.55;;;;;;;0.69;90.28;93286.81;5013043;28;20054;-84
2021/04/08 05:59:24;;;;;;;;;;;;;;;0.75;89.08;93313.25;5013133;28;20050;-85
2021/04/08 06:01:51;;;;;;;4.53;2.60;;;;;;;0.89;89.26;93315.22;5012751;28;20373;-84
2021/04/08 06:04:18;;;;;;;3.65;2.42;;;;;;;0.89;88.22;93306.88;5012488;28;20050;-88
2021/04/08 06:06:44;;;;;;;5.05;3.67;;;;;;;0.97;88.15;93321.31;5013429;28;20062;-83
2021/04/08 06:09:10;;;;;;;;;;;;;;;0.83;87.93;93315.81;5013433;28;20461;-84
2021/04/08 06:11:36;;;;;;;4.97;4.00;;;;;;;0.95;88.63;93321.44;5012337;28;19928;-85
2021/04/08 06:14:02;;;;;;;;;;;;;;;0.75;87.64;93324.13;5013110;28;20058;-85
2021/04/08 06:16:29;;;;;;;4.55;2.83;;;;;;;0.80;88.47;93321.19;5012428;28;19926;-85
2021/04/08 06:18:56;;;;;;;3.90;2.20;;;;;;;0.67;88.35;93324.09;5012263;28;20081;-85
2021/04/08 06:21:23;;;;;;;3.00;1.10;;;;;;;0.58;86.98;93320.72;5012193;28;20108;-85
2021/04/08 06:23:51;;;;;;;5.47;3.72;;;;;;;0.39;87.95;93329.22;5012524;28;20116;-84
2021/04/08 06:26:18;;;;;;;3.38;2.13;;;;;;;0.37;88.64;93326.84;5012306;28;20623;-85
2021/04/08 06:28:44;;;;;;;;;;;;;;;0.53;88.94;93333.78;5012682;28;20494;-83
2021/04/08 06:31:10;;;;;;;5.15;2.65;;;;;;;0.53;89.56;93341.38;5011942;28;20389;-83
2021/04/08 06:33:36;;;;;;;;;;;;;;;0.35;88.96;93348.13;5012432;28;20116;-83
2021/04/08 06:36:04;;;;;;;4.40;2.50;;;;;;;0.44;88.84;93347.28;5012247;28;19925;-83
2021/04/08 06:38:30;;;;;;;2.13;1.77;;;;;;;0.47;86.62;93354.56;5011967;28;20050;-83
2021/04/08 06:40:56;;;;;;;;;;;;;;;0.44;88.40;93357.41;5012535;28;20045;-83
2021/04/08 06:43:24;;;;;;;1.58;1.38;;;;;;;0.33;87.50;93353.31;5012109;28;19951;-83
2021/04/08 06:45:53;;;;;;;5.18;3.03;;;;;;;0.28;88.76;93363.09;5011903;28;20414;-84
2021/04/08 06:48:23;;;;;;;5.10;2.60;;;;;;;0.43;89.60;93363.41;5011788;28;20050;-83
2021/04/08 06:50:52;;;;;;;4.80;1.80;;;;;;;0.56;88.67;93362.22;5011719;28;20046;-83
2021/04/08 06:53:20;;;;;;;3.88;2.90;;;;;;;0.57;88.56;93361.28;5011892;28;20057;-84
2021/04/08 06:55:48;;;;;;;7.85;3.30;;;;;;;0.49;90.29;93344.31;5011759;28;20049;-84
2021/04/08 06:58:17;;;;;;;4.25;3.30;;;;;;;0.71;87.70;93337.22;5011577;28;20057;-84
2021/04/08 07:00:43;;;;;;;3.88;2.08;;;;;;;0.95;86.73;93369.50;5011556;28;20045;-85
2021/04/08 07:03:09;;;;;;;;;;;;;;;1.25;87.18;93370.03;5012126;28;20046;-84
2021/04/08 07:05:36;;;;;;;7.90;3.33;;;;;;;1.39;84.70;93375.50;5011687;28;20392;-85
2021/04/08 07:08:03;;;;;;;7.20;3.92;;;;;;;1.61;82.93;93379.25;5011484;28;20057;-84
2021/04/08 07:10:30;;;;;;;5.78;3.22;;;;;;;1.73;82.15;93374.72;5011502;28;20046;-85
2021/04/08 07:12:56;;;;;;;4.93;2.33;;;;;;;1.87;81.44;93369.06;5011475;28;20054;-83
2021/04/08 07:15:24;;;;;;;4.90;3.00;;;;;;;2.04;81.19;93370.91;5011301;28;20049;-84
2021/04/08 07:17:51;;;;;;;4.18;2.63;;;;;;;2.23;81.51;93368.09;5011610;28;20054;-84
2021/04/08 07:20:17;;;;;;;4.10;2.20;;;;;;;2.31;77.43;93369.09;5011585;28;20521;-85
2021/04/08 07:22:43;;;;;;;;;;;;;;;2.39;81.29;93372.44;5010996;28;20050;-84
2021/04/08 07:25:19;;;;;;;6.60;2.15;;;;;;;2.35;76.36;93373.69;5011158;28;19921;-84
2021/04/08 07:27:47;;;;;;;4.53;1.80;;;;;;;2.53;79.83;93371.03;5011214;28;20042;-87
2021/04/08 07:30:17;;;;;;;6.78;2.92;;;;;;;2.12;76.46;93359.03;5011303;28;20054;-84
2021/04/08 07:32:43;;;;;;;5.43;2.85;;;;;;;2.16;73.98;93374.72;5011353;28;20052;-84
2021/04/08 07:35:16;;;;;;;5.65;3.80;;;;;;;2.27;75.68;93366.84;5011265;28;20053;-84
2021/04/08 07:37:43;;;;;;;5.65;2.88;;;;;;;1.95;74.59;93365.78;5011113;28;20046;-85
2021/04/08 07:40:18;;;;;;;1.30;1.10;;;;;;;1.71;75.00;93356.38;5010880;28;20054;-86
2021/04/08 07:42:46;;;;;;;2.03;1.10;;;;;;;1.69;75.11;93379.31;5011387;28;20080;-85
2021/04/08 07:45:24;;;;;;;2.05;1.00;;;;;;;1.62;75.07;93372.47;5011006;28;20490;-85
2021/04/08 07:47:58;;;;;;;1.35;1.08;;;;;;;1.75;73.53;93384.72;5011077;28;20068;-84
2021/04/08 07:50:25;;;;;;;4.35;1.77;;;;;;;1.52;73.58;93375.09;5011003;28;20046;-85
2021/04/08 07:52:52;;;;;;;1.00;0.60;;;;;;;1.49;73.69;93355.94;5010837;28;20445;-84
2021/04/08 07:55:20;;;;;;;4.45;2.08;;;;;;;1.77;74.37;93382.81;5011209;28;20053;-87
2021/04/08 07:58:00;;;;;;;1.65;0.68;;;;;;;1.68;73.05;93389.56;5011059;28;20070;-86
2021/04/08 08:00:29;;;;;;;3.78;1.42;;;;;;;1.66;73.83;93392.25;5010963;28;20054;-87
2021/04/08 08:02:57;;;;;;;2.10;1.30;;;;;;;1.79;73.64;93393.56;5010807;28;20053;-85
2021/04/08 08:05:26;;;;;;;2.17;1.13;;;;;;;2.01;73.64;93387.19;5010738;28;20057;-85
2021/04/08 08:08:08;;;;;;;1.98;1.25;;;;;;;2.07;72.01;93386.59;5010820;28;20053;-88
2021/04/08 08:10:34;;;;;;;1.10;0.88;;;;;;;2.28;72.44;93385.38;5010816;28;20168;-88
2021/04/08 08:13:02;;;;;;;2.90;1.73;;;;;;;2.31;69.17;93405.34;5010820;28;20046;-89
2021/04/08 08:15:29;;;;;;;4.97;1.48;;;;;;;2.31;69.81;93390.13;5010754;28;20050;-90
2021/04/08 08:17:57;;;;;;;1.42;1.27;;;;;;;1.99;67.79;93384.81;5007316;28;20058;-88
2021/04/08 08:20:25;;;;;;;2.25;1.88;;;;;;;2.09;69.04;93404.94;5010449;28;20100;-88
2021/04/08 08:22:51;;;;;;;4.32;1.23;;;;;;;2.03;68.12;93395.44;5010790;28;20053;-87
2021/04/08 08:25:24;;;;;;;1.85;0.95;;;;;;;2.19;68.03;93406.59;5010545;28;20120;-88
2021/04/08 08:27:52;;;;;;;7.25;1.90;;;;;;;2.09;68.86;93397.34;5010677;28;20050;-89
2021/04/08 08:30:21;;;;;;;2.47;1.52;;;;;;;2.23;70.98;93401.03;5007249;28;20066;-88
2021/04/08 08:33:16;;;;;;;0.80;0.75;;;;;;;2.28;66.89;93413.28;4997294;28;20387;-90
2021/04/08 08:35:42;;;;;;;1.65;0.60;;;;;;;2.03;66.34;93410.63;4954725;28;20414;-86
2021/04/08 08:38:12;;;;;;;1.17;1.08;;;;;;;1.96;68.12;93410.47;5010841;28;20545;-89
2021/04/08 08:40:39;;;;;;;3.85;1.58;;;;;;;2.40;70.95;93404.44;5013499;28;20046;-89
2021/04/08 08:43:06;;;;;;;2.60;1.13;;;;;;;2.92;67.17;93410.22;5013804;28;20120;-89
2021/04/08 08:45:34;;;;;;;2.05;1.10;;;;;;;2.50;64.52;93409.38;4322400;28;20002371;-90
2021/04/08 08:48:04;;;;;;;1.60;0.88;;;;;;;2.54;64.89;93412.38;5014207;28;20112;-88
2021/04/08 08:50:31;;;;;;;2.17;1.30;;;;;;;2.47;63.52;93412.22;5014163;28;20054;-86
2021/04/08 08:52:58;;;;;;;2.35;1.40;;;;;;;2.45;65.96;93416.63;5013924;28;20045;-89
2021/04/08 08:55:24;;;;;;;3.20;1.92;;;;;;;2.47;66.15;93411.41;5013851;28;20100;-88
2021/04/08 08:57:53;;;;;;;2.63;1.85;;;;;;;2.67;68.31;93415.28;5013955;28;20100;-88
2021/04/08 09:00:21;;;;;;;2.25;1.30;;;;;;;2.82;68.30;93419.72;5013650;28;20445;-87
2021/04/08 09:02:49;;;;;;;2.72;1.50;;;;;;;2.63;62.72;93392.91;5013704;28;20046;-88
2021/04/08 09:05:18;;;;;;;1.58;1.23;;;;;;;2.58;63.82;93410.34;5013578;28;20087;-87
2021/04/08 09:07:48;;;;;;;1.83;1.02;;;;;;;2.40;64.92;93406.16;5013665;28;20679;-85
2021/04/08 09:10:23;;;;;;;1.92;0.93;;;;;;;2.55;64.93;93421.59;5013976;28;20042;-87
2021/04/08 09:12:50;;;;;;;3.35;1.70;;;;;;;3.03;65.90;93411.66;5013961;28;20041;-85
2021/04/08 09:15:17;;;;;;;2.03;1.23;;;;;;;3.23;65.09;93408.03;5013694;28;20057;-84
2021/04/08 09:17:46;;;;;;;1.98;1.20;;;;;;;3.35;59.17;93416.91;5013599;28;20115;-89
2021/04/08 09:20:16;;;;;;;2.05;1.13;;;;;;;3.07;60.65;93412.91;5012635;28;20413;-87
2021/04/08 09:22:54;;;;;;;7.40;1.85;;;;;;;3.42;61.35;93411.97;5012832;28;20049;-85
2021/04/08 09:25:21;;;;;;;2.17;1.10;;;;;;;3.37;58.87;93409.91;5011018;28;20129;-87
2021/04/08 09:27:52;;;;;;;2.55;1.63;;;;;;;2.91;53.81;93411.19;5012791;28;20046;-87
2021/04/08 09:30:43;;;;;;;1.40;1.02;;;;;;;2.61;58.15;93377.84;5012756;28;20490;-88
2021/04/08 09:33:10;;;;;;;3.60;2.13;;;;;;;2.75;56.26;93411.97;5013199;28;20177;-86
2021/04/08 09:35:37;;;;;;;3.35;2.20;;;;;;;3.26;58.09;93411.03;5013380;28;20180;-86
2021/04/08 09:38:28;;;;;;;1.50;0.75;;;;;;;3.05;56.31;93411.50;5013130;28;20050;-84
2021/04/08 09:41:04;;;;;;;0.73;0.47;;;;;;;2.89;54.59;93392.78;5009239;28;20494;-86
2021/04/08 09:43:31;;;;;;;3.70;1.35;;;;;;;2.76;55.67;93405.13;5013796;28;20181;-87
2021/04/08 09:46:10;;;;;;;8.45;2.78;;;;;;;3.20;53.13;93409.91;5016227;28;20049;-85
2021/04/08 09:49:00;;;;;;;5.53;1.65;;;;;;;3.48;48.13;93403.72;5033563;28;20041;-86
2021/04/08 09:51:33;;;;;;;2.45;1.58;;;;;;;3.98;52.38;93401.84;5013759;28;20472;-87
2021/04/08 09:54:03;;;;;;;0.85;0.40;;;;;;;3.24;52.35;93414.69;5032903;28;20461;-88
2021/04/08 09:56:54;;;;;;;1.92;1.25;;;;;;;3.25;52.24;93406.09;5032711;28;20054;-87
2021/04/08 09:59:22;;;;;;;0.70;0.50;;;;;;;3.15;53.55;93384.22;5018861;28;20050;-86
2021/04/08 10:01:49;;;;;;;5.75;1.70;;;;;;;3.34;55.00;93418.63;5012689;28;20510;-86
2021/04/08 10:04:21;;;;;;;2.42;1.65;;;;;;;3.26;54.35;93410.22;5012548;28;20383;-86
2021/04/08 10:07:00;;;;;;;3.85;2.22;;;;;;;3.48;56.47;93378.31;5012571;28;20050;-87
2021/04/08 10:09:26;;;;;;;2.60;1.08;;;;;;;3.44;52.32;93418.50;5008815;28;20095;-86
2021/04/08 10:11:52;;;;;;;;;;;;;;;3.71;57.54;93415.75;5012565;28;20097;-88
2021/04/08 10:14:21;;;;;;;1.30;1.20;;;;;;;4.07;58.48;93396.75;5011671;28;19921;-88
2021/04/08 10:17:03;;;;;;;6.38;1.52;;;;;;;3.96;55.57;93416.47;4996047;28;20064;-88
2021/04/08 10:19:34;;;;;;;2.00;1.15;;;;;;;3.83;55.86;93416.16;5012222;28;20068;-88
2021/04/08 10:22:01;;;;;;;1.85;1.73;;;;;;;3.36;56.39;93413.41;5012197;28;20046;-88
2021/04/08 10:24:34;;;;;;;2.83;1.45;;;;;;;3.04;56.29;93418.31;5012444;28;20054;-86
2021/04/08 10:27:00;;;;;;;7.03;3.17;;;;;;;3.37;57.30;93414.22;5012137;28;20046;-87
2021/04/08 10:29:34;;;;;;;4.68;2.22;;;;;;;4.16;60.28;93417.84;5012313;28;20049;-84
2021/04/08 10:32:00;;;;;;;4.65;1.52;;;;;;;4.36;54.51;93413.16;5012254;28;20046;-85
2021/04/08 10:34:34;;;;;;;7.72;2.55;;;;;;;4.55;53.33;93425.44;5007284;28;20418;-85
2021/04/08 10:37:02;;;;;;;2.38;1.08;;;;;;;4.68;53.53;93409.63;5006840;28;20053;-88
2021/04/08 10:39:31;;;;;;;10.93;3.50;;;;;;;4.75;54.82;93419.13;5007344;28;20119;-88
2021/04/08 10:41:59;;;;;;;2.40;1.60;;;;;;;4.32;55.00;93427.94;5002083;28;20084;-88
2021/04/08 10:44:28;;;;;;;1.77;1.02;;;;;;;4.10;57.83;93412.47;5008178;28;20049;-85
2021/04/08 10:46:55;;;;;;;7.95;2.85;;;;;;;3.54;56.09;93417.50;5004665;28;20497;-85
2021/04/08 10:49:28;;;;;;;0.93;0.63;;;;;;;3.53;59.56;93428.63;5007340;28;20050;-86
2021/04/08 10:51:56;;;;;;;1.75;1.17;;;;;;;3.11;59.03;93421.03;5008249;28;20053;-86
2021/04/08 10:54:33;;;;;;;1.58;1.25;;;;;;;3.03;62.16;93419.28;5005974;28;20056;-85
2021/04/08 10:57:00;;;;;;;1.10;1.00;;;;;;;3.19;63.43;93438.78;5011658;28;20105;-91
2021/04/08 10:59:29;;;;;;;2.00;1.60;;;;;;;3.46;65.17;93453.84;5010856;28;20501;-87
2021/04/08 11:01:55;;;;;;;6.13;2.58;;;;;;;3.44;69.80;93448.16;5011659;28;20057;-84
2021/04/08 11:04:23;;;;;;;14.50;5.82;;;;;;;3.27;64.53;93450.69;5011368;28;21133;-84
2021/04/08 11:06:50;;;;;;;6.70;3.10;;;;;;;3.34;72.00;93449.09;5011221;28;20049;-84
2021/04/08 11:09:22;;;;;;;5.55;2.53;;;;;;;3.27;69.54;93453.25;5011379;28;20049;-85
2021/04/08 11:11:50;;;;;;;4.68;1.70;;;;;;;3.33;67.58;93436.56;5011450;28;20136;-85
2021/04/08 11:14:20;;;;;;;2.88;2.10;;;;;;;3.24;66.36;93445.16;5011339;28;20050;-86
2021/04/08 11:16:47;;;;;;;11.90;4.35;;;;;;;3.39;67.19;93445.31;5011465;28;20093;-86
2021/04/08 11:19:14;;;;;;;2.40;1.67;;;;;;;3.97;66.20;93432.50;5011076;28;20064;-86
2021/04/08 11:21:41;;;;;;;3.75;2.17;;;;;;;4.66;66.56;93438.75;5011256;28;20058;-86
2021/04/08 11:24:08;;;;;;;5.80;2.67;;;;;;;5.35;61.94;93417.63;5011619;28;20045;-87
2021/04/08 11:26:46;;;;;;;5.75;1.38;;;;;;;5.58;59.31;93423.63;5011349;28;20046;-87
2021/04/08 11:29:19;;;;;;;2.90;1.48;;;;;;;6.08;58.63;93418.06;5010923;28;20045;-87
2021/04/08 11:31:58;;;;;;;2.95;1.48;;;;;;;6.60;60.82;93416.31;5011039;28;20057;-87
2021/04/08 11:34:24;;;;;;;2.67;1.65;;;;;;;6.58;52.60;93413.19;5012307;28;20056;-87
2021/04/08 11:36:53;;;;;;;3.45;2.10;;;;;;;6.27;53.93;93407.34;5030754;28;20049;-87
2021/04/08 11:39:19;;;;;;;6.38;3.00;;;;;;;5.89;55.59;93435.44;5012573;28;21203;-87
2021/04/08 11:41:45;;;;;;;;;;;;;;;5.54;57.17;93443.56;5011242;28;20041;-84
2021/04/08 11:44:23;;;;;;;3.80;1.60;;;;;;;4.39;58.16;93439.03;5010927;28;20479;-87
2021/04/08 11:46:49;;;;;;;3.40;2.15;;;;;;;4.60;58.60;93440.22;5011049;28;20058;-87
2021/04/08 11:49:16;;;;;;;;;;;;;;;4.80;63.73;93424.50;5011511;28;20050;-89